sensor_id;sensor_type;location;lat;lon;timestamp;P1;durP1;ratioP1;P2;durP2;ratioP2
28523;SDS011;15734;50.904;6.922;2022-09-03T00:08:51;6.38;;;1.20;;
28523;SDS011;15734;50.904;6.922;2022-09-03T00:11:23;1.77;;;1.10;;
28523;SDS011;15734;50.904;6.922;2022-09-03T00:14:12;2.47;;;1.20;;
28523;SDS011;15734;50.904;6.922;2022-09-03T00:16:52;4.20;;;1.30;;
28523;SDS011;15734;50.904;6.922;2022-09-03T00:19:23;1.85;;;1.10;;
28523;SDS011;15734;50.904;6.922;2022-09-03T00:25:04;2.45;;;1.25;;
28523;SDS011;15734;50.904;6.922;2022-09-03T00:27:36;3.35;;;1.27;;
28523;SDS011;15734;50.904;6.922;2022-09-03T00:30:04;2.10;;;1.30;;
28523;SDS011;15734;50.904;6.922;2022-09-03T00:38:06;1.95;;;1.38;;
28523;SDS011;15734;50.904;6.922;2022-09-03T00:43:20;1.05;;;0.95;;
28523;SDS011;15734;50.904;6.922;2022-09-03T00:49:02;5.35;;;1.52;;
28523;SDS011;15734;50.904;6.922;2022-09-03T00:51:52;5.63;;;1.48;;
28523;SDS011;15734;50.904;6.922;2022-09-03T00:54:24;2.13;;;1.45;;
28523;SDS011;15734;50.904;6.922;2022-09-03T01:02:39;4.03;;;1.58;;
28523;SDS011;15734;50.904;6.922;2022-09-03T01:05:22;1.98;;;1.33;;
28523;SDS011;15734;50.904;6.922;2022-09-03T01:10:49;4.93;;;1.60;;
28523;SDS011;15734;50.904;6.922;2022-09-03T01:24:26;3.55;;;1.40;;
28523;SDS011;15734;50.904;6.922;2022-09-03T01:27:14;4.68;;;1.33;;
28523;SDS011;15734;50.904;6.922;2022-09-03T01:33:16;4.28;;;1.33;;
28523;SDS011;15734;50.904;6.922;2022-09-03T01:38:36;2.08;;;1.10;;
28523;SDS011;15734;50.904;6.922;2022-09-03T01:44:24;3.67;;;1.10;;
28523;SDS011;15734;50.904;6.922;2022-09-03T01:49:53;2.65;;;1.38;;
28523;SDS011;15734;50.904;6.922;2022-09-03T01:52:35;5.20;;;1.65;;
28523;SDS011;15734;50.904;6.922;2022-09-03T01:57:39;5.75;;;1.20;;
28523;SDS011;15734;50.904;6.922;2022-09-03T02:00:30;4.53;;;1.30;;
28523;SDS011;15734;50.904;6.922;2022-09-03T02:03:01;2.42;;;1.10;;
28523;SDS011;15734;50.904;6.922;2022-09-03T02:05:30;2.20;;;1.30;;
28523;SDS011;15734;50.904;6.922;2022-09-03T02:08:00;4.75;;;1.10;;
28523;SDS011;15734;50.904;6.922;2022-09-03T02:10:31;2.90;;;1.40;;
28523;SDS011;15734;50.904;6.922;2022-09-03T02:15:49;2.08;;;1.15;;
28523;SDS011;15734;50.904;6.922;2022-09-03T02:18:24;1.50;;;1.08;;
28523;SDS011;15734;50.904;6.922;2022-09-03T02:20:55;2.17;;;1.27;;
28523;SDS011;15734;50.904;6.922;2022-09-03T02:23:23;3.20;;;0.90;;
28523;SDS011;15734;50.904;6.922;2022-09-03T02:25:56;3.08;;;1.42;;
28523;SDS011;15734;50.904;6.922;2022-09-03T02:28:24;4.38;;;1.92;;
28523;SDS011;15734;50.904;6.922;2022-09-03T02:30:51;5.05;;;1.52;;
28523;SDS011;15734;50.904;6.922;2022-09-03T02:33:18;1.80;;;1.40;;
28523;SDS011;15734;50.904;6.922;2022-09-03T02:35:44;1.40;;;1.15;;
28523;SDS011;15734;50.904;6.922;2022-09-03T02:38:18;2.30;;;1.30;;
28523;SDS011;15734;50.904;6.922;2022-09-03T02:40:45;3.63;;;1.15;;
28523;SDS011;15734;50.904;6.922;2022-09-03T02:43:16;1.20;;;1.05;;
28523;SDS011;15734;50.904;6.922;2022-09-03T02:45:51;2.42;;;1.40;;
28523;SDS011;15734;50.904;6.922;2022-09-03T02:48:21;5.20;;;1.25;;
28523;SDS011;15734;50.904;6.922;2022-09-03T02:50:48;2.08;;;0.80;;
28523;SDS011;15734;50.904;6.922;2022-09-03T02:53:14;3.25;;;1.15;;
28523;SDS011;15734;50.904;6.922;2022-09-03T02:55:39;3.92;;;1.25;;
28523;SDS011;15734;50.904;6.922;2022-09-03T02:58:05;2.13;;;1.10;;
28523;SDS011;15734;50.904;6.922;2022-09-03T03:00:32;1.63;;;1.20;;
28523;SDS011;15734;50.904;6.922;2022-09-03T03:03:00;2.92;;;1.15;;
28523;SDS011;15734;50.904;6.922;2022-09-03T03:05:29;1.40;;;0.98;;
28523;SDS011;15734;50.904;6.922;2022-09-03T03:08:23;2.45;;;1.35;;
28523;SDS011;15734;50.904;6.922;2022-09-03T03:10:51;3.13;;;1.70;;
28523;SDS011;15734;50.904;6.922;2022-09-03T03:13:18;2.92;;;1.20;;
28523;SDS011;15734;50.904;6.922;2022-09-03T03:15:44;1.85;;;1.30;;
28523;SDS011;15734;50.904;6.922;2022-09-03T03:18:11;2.15;;;1.52;;
28523;SDS011;15734;50.904;6.922;2022-09-03T03:20:37;3.55;;;1.45;;
28523;SDS011;15734;50.904;6.922;2022-09-03T03:23:03;1.63;;;1.48;;
28523;SDS011;15734;50.904;6.922;2022-09-03T03:25:34;6.05;;;2.65;;
28523;SDS011;15734;50.904;6.922;2022-09-03T03:28:00;1.90;;;1.30;;
28523;SDS011;15734;50.904;6.922;2022-09-03T03:30:27;7.30;;;1.63;;
28523;SDS011;15734;50.904;6.922;2022-09-03T03:32:53;4.57;;;1.42;;
28523;SDS011;15734;50.904;6.922;2022-09-03T03:35:19;4.32;;;1.52;;
28523;SDS011;15734;50.904;6.922;2022-09-03T03:37:45;2.78;;;1.50;;
28523;SDS011;15734;50.904;6.922;2022-09-03T03:40:11;3.28;;;1.67;;
28523;SDS011;15734;50.904;6.922;2022-09-03T03:42:37;5.30;;;1.48;;
28523;SDS011;15734;50.904;6.922;2022-09-03T03:45:03;4.93;;;2.38;;
28523;SDS011;15734;50.904;6.922;2022-09-03T03:47:30;2.03;;;1.33;;
28523;SDS011;15734;50.904;6.922;2022-09-03T03:49:56;1.90;;;1.17;;
28523;SDS011;15734;50.904;6.922;2022-09-03T03:52:22;1.55;;;1.10;;
28523;SDS011;15734;50.904;6.922;2022-09-03T03:54:49;2.65;;;1.30;;
28523;SDS011;15734;50.904;6.922;2022-09-03T03:57:15;3.85;;;1.70;;
28523;SDS011;15734;50.904;6.922;2022-09-03T03:59:41;5.28;;;0.90;;
28523;SDS011;15734;50.904;6.922;2022-09-03T04:02:06;1.63;;;0.98;;
28523;SDS011;15734;50.904;6.922;2022-09-03T04:04:32;1.33;;;1.10;;
28523;SDS011;15734;50.904;6.922;2022-09-03T04:06:57;2.22;;;0.85;;
28523;SDS011;15734;50.904;6.922;2022-09-03T04:09:23;3.53;;;1.42;;
28523;SDS011;15734;50.904;6.922;2022-09-03T04:11:48;2.28;;;0.90;;
28523;SDS011;15734;50.904;6.922;2022-09-03T04:14:15;2.35;;;1.05;;
28523;SDS011;15734;50.904;6.922;2022-09-03T04:16:41;1.48;;;1.10;;
28523;SDS011;15734;50.904;6.922;2022-09-03T04:19:10;1.95;;;1.30;;
28523;SDS011;15734;50.904;6.922;2022-09-03T04:21:37;2.03;;;0.90;;
28523;SDS011;15734;50.904;6.922;2022-09-03T04:24:03;5.93;;;1.30;;
28523;SDS011;15734;50.904;6.922;2022-09-03T04:26:30;1.35;;;0.90;;
28523;SDS011;15734;50.904;6.922;2022-09-03T04:28:57;1.20;;;0.80;;
28523;SDS011;15734;50.904;6.922;2022-09-03T04:31:25;2.35;;;1.00;;
28523;SDS011;15734;50.904;6.922;2022-09-03T04:33:50;1.55;;;0.90;;
28523;SDS011;15734;50.904;6.922;2022-09-03T04:36:20;1.67;;;0.88;;
28523;SDS011;15734;50.904;6.922;2022-09-03T04:38:48;2.78;;;0.82;;
28523;SDS011;15734;50.904;6.922;2022-09-03T04:41:19;2.25;;;0.90;;
28523;SDS011;15734;50.904;6.922;2022-09-03T04:43:49;5.13;;;1.07;;
28523;SDS011;15734;50.904;6.922;2022-09-03T04:46:15;1.52;;;0.80;;
28523;SDS011;15734;50.904;6.922;2022-09-03T04:48:41;1.10;;;1.00;;
28523;SDS011;15734;50.904;6.922;2022-09-03T04:51:11;2.08;;;1.08;;
28523;SDS011;15734;50.904;6.922;2022-09-03T04:53:42;2.28;;;1.00;;
28523;SDS011;15734;50.904;6.922;2022-09-03T04:56:29;3.00;;;1.30;;
28523;SDS011;15734;50.904;6.922;2022-09-03T04:58:57;1.20;;;0.90;;
28523;SDS011;15734;50.904;6.922;2022-09-03T05:01:25;2.15;;;1.17;;
28523;SDS011;15734;50.904;6.922;2022-09-03T05:03:51;1.30;;;1.00;;
28523;SDS011;15734;50.904;6.922;2022-09-03T05:06:18;1.77;;;1.00;;
28523;SDS011;15734;50.904;6.922;2022-09-03T05:08:47;1.17;;;1.02;;
28523;SDS011;15734;50.904;6.922;2022-09-03T05:11:14;1.25;;;1.00;;
28523;SDS011;15734;50.904;6.922;2022-09-03T05:13:40;1.52;;;1.00;;
28523;SDS011;15734;50.904;6.922;2022-09-03T05:16:07;1.42;;;0.82;;
28523;SDS011;15734;50.904;6.922;2022-09-03T05:18:34;3.47;;;1.08;;
28523;SDS011;15734;50.904;6.922;2022-09-03T05:21:01;2.58;;;0.95;;
28523;SDS011;15734;50.904;6.922;2022-09-03T05:23:31;5.75;;;0.98;;
28523;SDS011;15734;50.904;6.922;2022-09-03T05:26:02;0.90;;;0.75;;
28523;SDS011;15734;50.904;6.922;2022-09-03T05:28:33;4.30;;;1.23;;
28523;SDS011;15734;50.904;6.922;2022-09-03T05:31:01;1.75;;;0.90;;
28523;SDS011;15734;50.904;6.922;2022-09-03T05:33:32;2.83;;;1.00;;
28523;SDS011;15734;50.904;6.922;2022-09-03T05:36:03;2.08;;;0.98;;
28523;SDS011;15734;50.904;6.922;2022-09-03T05:38:30;3.17;;;1.02;;
28523;SDS011;15734;50.904;6.922;2022-09-03T05:41:00;1.73;;;1.05;;
28523;SDS011;15734;50.904;6.922;2022-09-03T05:43:26;1.65;;;0.80;;
28523;SDS011;15734;50.904;6.922;2022-09-03T05:45:57;1.00;;;0.90;;
28523;SDS011;15734;50.904;6.922;2022-09-03T05:48:30;1.58;;;1.00;;
28523;SDS011;15734;50.904;6.922;2022-09-03T05:50:58;1.75;;;0.98;;
28523;SDS011;15734;50.904;6.922;2022-09-03T05:53:24;3.22;;;0.88;;
28523;SDS011;15734;50.904;6.922;2022-09-03T05:55:56;3.95;;;0.80;;
28523;SDS011;15734;50.904;6.922;2022-09-03T05:58:23;2.05;;;1.10;;
28523;SDS011;15734;50.904;6.922;2022-09-03T06:00:49;2.50;;;1.13;;
28523;SDS011;15734;50.904;6.922;2022-09-03T06:03:15;1.23;;;0.90;;
28523;SDS011;15734;50.904;6.922;2022-09-03T06:05:48;1.10;;;0.80;;
28523;SDS011;15734;50.904;6.922;2022-09-03T06:08:15;1.20;;;0.90;;
28523;SDS011;15734;50.904;6.922;2022-09-03T06:10:40;2.63;;;1.10;;
28523;SDS011;15734;50.904;6.922;2022-09-03T06:13:06;4.18;;;0.80;;
28523;SDS011;15734;50.904;6.922;2022-09-03T06:15:31;1.23;;;0.80;;
28523;SDS011;15734;50.904;6.922;2022-09-03T06:17:57;2.00;;;1.00;;
28523;SDS011;15734;50.904;6.922;2022-09-03T06:20:23;1.98;;;0.95;;
28523;SDS011;15734;50.904;6.922;2022-09-03T06:22:51;0.95;;;0.75;;
28523;SDS011;15734;50.904;6.922;2022-09-03T06:25:17;2.47;;;1.20;;
28523;SDS011;15734;50.904;6.922;2022-09-03T06:27:43;1.20;;;0.80;;
28523;SDS011;15734;50.904;6.922;2022-09-03T06:30:09;6.07;;;1.13;;
28523;SDS011;15734;50.904;6.922;2022-09-03T06:32:45;1.67;;;1.02;;
28523;SDS011;15734;50.904;6.922;2022-09-03T06:35:11;1.70;;;1.10;;
28523;SDS011;15734;50.904;6.922;2022-09-03T06:37:40;3.28;;;0.80;;
28523;SDS011;15734;50.904;6.922;2022-09-03T06:40:07;1.88;;;1.45;;
28523;SDS011;15734;50.904;6.922;2022-09-03T06:42:36;6.43;;;1.10;;
28523;SDS011;15734;50.904;6.922;2022-09-03T06:45:06;2.15;;;0.73;;
28523;SDS011;15734;50.904;6.922;2022-09-03T06:47:32;2.47;;;1.25;;
28523;SDS011;15734;50.904;6.922;2022-09-03T06:49:58;1.55;;;0.80;;
28523;SDS011;15734;50.904;6.922;2022-09-03T06:52:25;1.42;;;0.73;;
28523;SDS011;15734;50.904;6.922;2022-09-03T06:54:52;1.80;;;0.88;;
28523;SDS011;15734;50.904;6.922;2022-09-03T06:57:17;1.00;;;0.90;;
28523;SDS011;15734;50.904;6.922;2022-09-03T06:59:43;2.28;;;0.80;;
28523;SDS011;15734;50.904;6.922;2022-09-03T07:02:09;1.00;;;0.90;;
28523;SDS011;15734;50.904;6.922;2022-09-03T07:04:34;2.25;;;0.88;;
28523;SDS011;15734;50.904;6.922;2022-09-03T07:07:00;1.10;;;0.90;;
28523;SDS011;15734;50.904;6.922;2022-09-03T07:09:26;4.10;;;0.93;;
28523;SDS011;15734;50.904;6.922;2022-09-03T07:11:52;2.00;;;1.05;;
28523;SDS011;15734;50.904;6.922;2022-09-03T07:14:18;1.83;;;0.90;;
28523;SDS011;15734;50.904;6.922;2022-09-03T07:16:45;1.30;;;0.90;;
28523;SDS011;15734;50.904;6.922;2022-09-03T07:19:12;2.17;;;1.00;;
28523;SDS011;15734;50.904;6.922;2022-09-03T07:21:38;2.70;;;1.30;;
28523;SDS011;15734;50.904;6.922;2022-09-03T07:24:05;1.48;;;1.00;;
28523;SDS011;15734;50.904;6.922;2022-09-03T07:26:33;1.45;;;0.98;;
28523;SDS011;15734;50.904;6.922;2022-09-03T07:29:00;1.33;;;0.90;;
28523;SDS011;15734;50.904;6.922;2022-09-03T07:31:29;4.72;;;1.20;;
28523;SDS011;15734;50.904;6.922;2022-09-03T07:34:01;7.55;;;1.40;;
28523;SDS011;15734;50.904;6.922;2022-09-03T07:36:30;4.32;;;1.60;;
28523;SDS011;15734;50.904;6.922;2022-09-03T07:38:59;3.60;;;1.05;;
28523;SDS011;15734;50.904;6.922;2022-09-03T07:41:25;4.45;;;1.70;;
28523;SDS011;15734;50.904;6.922;2022-09-03T07:43:51;1.48;;;0.80;;
28523;SDS011;15734;50.904;6.922;2022-09-03T07:46:21;1.15;;;0.80;;
28523;SDS011;15734;50.904;6.922;2022-09-03T07:48:52;4.72;;;0.93;;
28523;SDS011;15734;50.904;6.922;2022-09-03T07:51:20;5.07;;;1.08;;
28523;SDS011;15734;50.904;6.922;2022-09-03T07:53:50;2.45;;;0.75;;
28523;SDS011;15734;50.904;6.922;2022-09-03T07:56:17;2.13;;;1.05;;
28523;SDS011;15734;50.904;6.922;2022-09-03T07:58:43;9.75;;;0.80;;
28523;SDS011;15734;50.904;6.922;2022-09-03T08:01:16;0.65;;;0.65;;
28523;SDS011;15734;50.904;6.922;2022-09-03T08:03:44;1.48;;;1.08;;
28523;SDS011;15734;50.904;6.922;2022-09-03T08:06:12;1.95;;;0.80;;
28523;SDS011;15734;50.904;6.922;2022-09-03T08:08:39;2.50;;;1.00;;
28523;SDS011;15734;50.904;6.922;2022-09-03T08:11:17;1.35;;;1.00;;
28523;SDS011;15734;50.904;6.922;2022-09-03T08:13:46;4.40;;;1.05;;
28523;SDS011;15734;50.904;6.922;2022-09-03T08:16:14;1.58;;;1.02;;
28523;SDS011;15734;50.904;6.922;2022-09-03T08:18:42;0.88;;;0.80;;
28523;SDS011;15734;50.904;6.922;2022-09-03T08:21:09;1.33;;;1.13;;
28523;SDS011;15734;50.904;6.922;2022-09-03T08:23:38;1.73;;;1.00;;
28523;SDS011;15734;50.904;6.922;2022-09-03T08:26:05;2.58;;;1.10;;
28523;SDS011;15734;50.904;6.922;2022-09-03T08:28:31;4.55;;;1.00;;
28523;SDS011;15734;50.904;6.922;2022-09-03T08:30:58;6.70;;;1.15;;
28523;SDS011;15734;50.904;6.922;2022-09-03T08:33:40;3.00;;;1.20;;
28523;SDS011;15734;50.904;6.922;2022-09-03T08:36:08;3.60;;;1.13;;
28523;SDS011;15734;50.904;6.922;2022-09-03T08:38:36;5.07;;;1.45;;
28523;SDS011;15734;50.904;6.922;2022-09-03T08:41:03;2.13;;;1.20;;
28523;SDS011;15734;50.904;6.922;2022-09-03T08:44:05;4.05;;;1.20;;
28523;SDS011;15734;50.904;6.922;2022-09-03T08:49:31;6.88;;;1.50;;
28523;SDS011;15734;50.904;6.922;2022-09-03T08:52:21;4.50;;;1.00;;
28523;SDS011;15734;50.904;6.922;2022-09-03T08:54:48;3.10;;;1.63;;
28523;SDS011;15734;50.904;6.922;2022-09-03T08:57:16;6.10;;;1.20;;
28523;SDS011;15734;50.904;6.922;2022-09-03T08:59:44;4.57;;;1.27;;
28523;SDS011;15734;50.904;6.922;2022-09-03T09:04:53;1.77;;;1.00;;
28523;SDS011;15734;50.904;6.922;2022-09-03T09:07:41;2.25;;;1.10;;
28523;SDS011;15734;50.904;6.922;2022-09-03T09:10:15;2.33;;;1.02;;
28523;SDS011;15734;50.904;6.922;2022-09-03T09:16:02;1.15;;;1.02;;
28523;SDS011;15734;50.904;6.922;2022-09-03T09:18:47;1.60;;;1.10;;
28523;SDS011;15734;50.904;6.922;2022-09-03T09:21:19;2.08;;;1.10;;
28523;SDS011;15734;50.904;6.922;2022-09-03T09:23:51;2.47;;;1.00;;
28523;SDS011;15734;50.904;6.922;2022-09-03T09:26:18;1.88;;;1.00;;
28523;SDS011;15734;50.904;6.922;2022-09-03T09:28:51;7.22;;;1.10;;
28523;SDS011;15734;50.904;6.922;2022-09-03T09:31:21;3.10;;;0.80;;
28523;SDS011;15734;50.904;6.922;2022-09-03T09:33:46;3.30;;;1.83;;
28523;SDS011;15734;50.904;6.922;2022-09-03T09:36:13;2.13;;;1.05;;
28523;SDS011;15734;50.904;6.922;2022-09-03T09:38:41;4.47;;;1.05;;
28523;SDS011;15734;50.904;6.922;2022-09-03T09:41:08;1.73;;;1.13;;
28523;SDS011;15734;50.904;6.922;2022-09-03T09:43:34;3.47;;;1.63;;
28523;SDS011;15734;50.904;6.922;2022-09-03T09:46:05;3.50;;;1.45;;
28523;SDS011;15734;50.904;6.922;2022-09-03T09:48:37;2.42;;;1.35;;
28523;SDS011;15734;50.904;6.922;2022-09-03T09:51:17;7.38;;;1.48;;
28523;SDS011;15734;50.904;6.922;2022-09-03T09:53:46;1.88;;;1.38;;
28523;SDS011;15734;50.904;6.922;2022-09-03T09:56:22;9.90;;;1.40;;
28523;SDS011;15734;50.904;6.922;2022-09-03T09:58:49;1.70;;;1.25;;
28523;SDS011;15734;50.904;6.922;2022-09-03T10:01:25;4.57;;;1.40;;
28523;SDS011;15734;50.904;6.922;2022-09-03T10:03:55;3.25;;;1.58;;
28523;SDS011;15734;50.904;6.922;2022-09-03T10:06:24;3.80;;;1.50;;
28523;SDS011;15734;50.904;6.922;2022-09-03T10:09:11;4.78;;;1.15;;
28523;SDS011;15734;50.904;6.922;2022-09-03T10:11:40;1.70;;;1.17;;
28523;SDS011;15734;50.904;6.922;2022-09-03T10:14:16;5.28;;;1.17;;
28523;SDS011;15734;50.904;6.922;2022-09-03T10:16:49;2.72;;;1.25;;
28523;SDS011;15734;50.904;6.922;2022-09-03T10:19:25;5.57;;;1.50;;
28523;SDS011;15734;50.904;6.922;2022-09-03T10:22:03;4.95;;;1.60;;
28523;SDS011;15734;50.904;6.922;2022-09-03T10:24:46;7.82;;;1.90;;
28523;SDS011;15734;50.904;6.922;2022-09-03T10:27:26;5.18;;;1.40;;
28523;SDS011;15734;50.904;6.922;2022-09-03T10:29:53;11.20;;;1.85;;
28523;SDS011;15734;50.904;6.922;2022-09-03T10:32:26;3.88;;;1.52;;
28523;SDS011;15734;50.904;6.922;2022-09-03T10:35:17;2.88;;;1.27;;
28523;SDS011;15734;50.904;6.922;2022-09-03T10:40:36;5.43;;;1.02;;
28523;SDS011;15734;50.904;6.922;2022-09-03T10:43:14;1.83;;;1.40;;
28523;SDS011;15734;50.904;6.922;2022-09-03T10:51:34;4.40;;;1.70;;
28523;SDS011;15734;50.904;6.922;2022-09-03T10:57:14;2.58;;;1.42;;
28523;SDS011;15734;50.904;6.922;2022-09-03T11:07:34;3.78;;;2.20;;
28523;SDS011;15734;50.904;6.922;2022-09-03T11:10:11;6.07;;;1.98;;
28523;SDS011;15734;50.904;6.922;2022-09-03T11:12:52;14.43;;;2.92;;
28523;SDS011;15734;50.904;6.922;2022-09-03T11:15:42;8.30;;;2.10;;
28523;SDS011;15734;50.904;6.922;2022-09-03T11:18:25;6.55;;;2.22;;
28523;SDS011;15734;50.904;6.922;2022-09-03T11:20:58;6.20;;;2.05;;
28523;SDS011;15734;50.904;6.922;2022-09-03T11:23:28;2.28;;;1.63;;
28523;SDS011;15734;50.904;6.922;2022-09-03T11:26:03;2.47;;;2.13;;
28523;SDS011;15734;50.904;6.922;2022-09-03T11:31:16;4.80;;;1.90;;
28523;SDS011;15734;50.904;6.922;2022-09-03T11:34:14;3.40;;;1.77;;
28523;SDS011;15734;50.904;6.922;2022-09-03T11:36:51;2.10;;;1.30;;
28523;SDS011;15734;50.904;6.922;2022-09-03T11:42:00;5.43;;;1.63;;
28523;SDS011;15734;50.904;6.922;2022-09-03T11:44:40;3.20;;;1.73;;
28523;SDS011;15734;50.904;6.922;2022-09-03T11:47:21;2.97;;;1.73;;
28523;SDS011;15734;50.904;6.922;2022-09-03T11:49:49;6.57;;;1.63;;
28523;SDS011;15734;50.904;6.922;2022-09-03T11:52:26;2.15;;;1.63;;
28523;SDS011;15734;50.904;6.922;2022-09-03T11:54:53;5.32;;;1.65;;
28523;SDS011;15734;50.904;6.922;2022-09-03T11:57:25;3.70;;;1.60;;
28523;SDS011;15734;50.904;6.922;2022-09-03T12:02:41;3.00;;;1.70;;
28523;SDS011;15734;50.904;6.922;2022-09-03T12:10:34;2.80;;;2.00;;
28523;SDS011;15734;50.904;6.922;2022-09-03T12:18:30;3.63;;;2.55;;
28523;SDS011;15734;50.904;6.922;2022-09-03T12:20:59;5.03;;;2.33;;
28523;SDS011;15734;50.904;6.922;2022-09-03T12:23:31;3.85;;;2.15;;
28523;SDS011;15734;50.904;6.922;2022-09-03T12:26:07;3.47;;;2.75;;
28523;SDS011;15734;50.904;6.922;2022-09-03T12:28:39;5.95;;;2.22;;
28523;SDS011;15734;50.904;6.922;2022-09-03T12:31:06;3.80;;;2.28;;
28523;SDS011;15734;50.904;6.922;2022-09-03T12:33:51;4.20;;;1.70;;
28523;SDS011;15734;50.904;6.922;2022-09-03T12:36:18;1.90;;;1.65;;
28523;SDS011;15734;50.904;6.922;2022-09-03T12:38:44;3.85;;;1.60;;
28523;SDS011;15734;50.904;6.922;2022-09-03T12:43:58;1.92;;;1.60;;
28523;SDS011;15734;50.904;6.922;2022-09-03T12:46:25;3.72;;;2.28;;
28523;SDS011;15734;50.904;6.922;2022-09-03T12:48:56;7.35;;;2.13;;
28523;SDS011;15734;50.904;6.922;2022-09-03T12:51:35;2.13;;;1.75;;
28523;SDS011;15734;50.904;6.922;2022-09-03T12:54:05;5.57;;;2.20;;
28523;SDS011;15734;50.904;6.922;2022-09-03T12:56:38;4.60;;;1.85;;
28523;SDS011;15734;50.904;6.922;2022-09-03T12:59:07;5.68;;;2.03;;
28523;SDS011;15734;50.904;6.922;2022-09-03T13:01:43;3.15;;;2.10;;
28523;SDS011;15734;50.904;6.922;2022-09-03T13:04:13;2.10;;;1.88;;
28523;SDS011;15734;50.904;6.922;2022-09-03T13:09:13;2.10;;;1.90;;
28523;SDS011;15734;50.904;6.922;2022-09-03T13:11:40;2.58;;;1.80;;
28523;SDS011;15734;50.904;6.922;2022-09-03T13:14:09;7.15;;;2.10;;
28523;SDS011;15734;50.904;6.922;2022-09-03T13:19:24;2.47;;;2.00;;
28523;SDS011;15734;50.904;6.922;2022-09-03T13:22:07;4.88;;;2.17;;
28523;SDS011;15734;50.904;6.922;2022-09-03T13:24:54;4.13;;;1.58;;
28523;SDS011;15734;50.904;6.922;2022-09-03T13:27:53;7.43;;;1.80;;
28523;SDS011;15734;50.904;6.922;2022-09-03T13:30:37;4.75;;;2.13;;
28523;SDS011;15734;50.904;6.922;2022-09-03T13:33:33;5.05;;;2.13;;
28523;SDS011;15734;50.904;6.922;2022-09-03T13:38:55;3.58;;;1.83;;
28523;SDS011;15734;50.904;6.922;2022-09-03T13:41:30;6.72;;;2.22;;
28523;SDS011;15734;50.904;6.922;2022-09-03T13:44:06;3.25;;;1.75;;
28523;SDS011;15734;50.904;6.922;2022-09-03T13:52:33;9.90;;;2.05;;
28523;SDS011;15734;50.904;6.922;2022-09-03T13:55:19;3.55;;;1.95;;
28523;SDS011;15734;50.904;6.922;2022-09-03T13:57:53;3.05;;;1.80;;
28523;SDS011;15734;50.904;6.922;2022-09-03T14:00:31;1.85;;;1.58;;
28523;SDS011;15734;50.904;6.922;2022-09-03T14:03:24;5.45;;;2.05;;
28523;SDS011;15734;50.904;6.922;2022-09-03T14:14:15;1.80;;;1.65;;
28523;SDS011;15734;50.904;6.922;2022-09-03T14:20:03;2.80;;;2.13;;
28523;SDS011;15734;50.904;6.922;2022-09-03T14:25:31;2.92;;;2.22;;
28523;SDS011;15734;50.904;6.922;2022-09-03T14:30:48;2.58;;;1.70;;
28523;SDS011;15734;50.904;6.922;2022-09-03T14:39:05;4.63;;;2.40;;
28523;SDS011;15734;50.904;6.922;2022-09-03T14:50:10;7.80;;;2.42;;
28523;SDS011;15734;50.904;6.922;2022-09-03T14:52:58;6.30;;;2.00;;
28523;SDS011;15734;50.904;6.922;2022-09-03T14:55:56;2.88;;;2.00;;
28523;SDS011;15734;50.904;6.922;2022-09-03T15:01:38;9.95;;;2.63;;
28523;SDS011;15734;50.904;6.922;2022-09-03T15:06:37;3.28;;;1.80;;
28523;SDS011;15734;50.904;6.922;2022-09-03T15:09:12;2.63;;;1.92;;
28523;SDS011;15734;50.904;6.922;2022-09-03T15:14:23;2.65;;;1.95;;
28523;SDS011;15734;50.904;6.922;2022-09-03T15:17:13;2.38;;;1.80;;
28523;SDS011;15734;50.904;6.922;2022-09-03T15:25:30;4.00;;;1.90;;
28523;SDS011;15734;50.904;6.922;2022-09-03T15:28:17;2.17;;;1.90;;
28523;SDS011;15734;50.904;6.922;2022-09-03T15:30:56;3.50;;;2.00;;
28523;SDS011;15734;50.904;6.922;2022-09-03T15:33:41;2.58;;;1.63;;
28523;SDS011;15734;50.904;6.922;2022-09-03T15:36:19;3.53;;;2.00;;
28523;SDS011;15734;50.904;6.922;2022-09-03T15:41:58;6.07;;;1.73;;
28523;SDS011;15734;50.904;6.922;2022-09-03T15:44:33;1.80;;;1.67;;
28523;SDS011;15734;50.904;6.922;2022-09-03T15:47:04;2.22;;;1.75;;
28523;SDS011;15734;50.904;6.922;2022-09-03T15:52:38;3.55;;;2.30;;
28523;SDS011;15734;50.904;6.922;2022-09-03T15:55:13;4.47;;;1.65;;
28523;SDS011;15734;50.904;6.922;2022-09-03T15:57:55;1.90;;;1.70;;
28523;SDS011;15734;50.904;6.922;2022-09-03T16:03:38;2.92;;;1.92;;
28523;SDS011;15734;50.904;6.922;2022-09-03T16:06:37;3.78;;;1.75;;
28523;SDS011;15734;50.904;6.922;2022-09-03T16:09:17;2.33;;;1.70;;
28523;SDS011;15734;50.904;6.922;2022-09-03T16:15:18;2.20;;;1.65;;
28523;SDS011;15734;50.904;6.922;2022-09-03T16:25:28;8.52;;;2.00;;
28523;SDS011;15734;50.904;6.922;2022-09-03T16:28:01;5.50;;;2.38;;
28523;SDS011;15734;50.904;6.922;2022-09-03T16:33:25;5.50;;;2.38;;
28523;SDS011;15734;50.904;6.922;2022-09-03T16:36:05;3.75;;;2.35;;
28523;SDS011;15734;50.904;6.922;2022-09-03T16:38:51;6.95;;;3.05;;
28523;SDS011;15734;50.904;6.922;2022-09-03T16:52:11;4.20;;;3.55;;
28523;SDS011;15734;50.904;6.922;2022-09-03T17:00:08;7.18;;;3.58;;
28523;SDS011;15734;50.904;6.922;2022-09-03T17:02:47;7.75;;;3.15;;
28523;SDS011;15734;50.904;6.922;2022-09-03T17:11:01;10.00;;;2.70;;
28523;SDS011;15734;50.904;6.922;2022-09-03T17:13:51;4.72;;;2.10;;
28523;SDS011;15734;50.904;6.922;2022-09-03T17:16:35;4.22;;;2.50;;
28523;SDS011;15734;50.904;6.922;2022-09-03T17:19:18;11.35;;;2.70;;
28523;SDS011;15734;50.904;6.922;2022-09-03T17:27:03;5.50;;;2.20;;
28523;SDS011;15734;50.904;6.922;2022-09-03T17:32:18;3.65;;;2.20;;
28523;SDS011;15734;50.904;6.922;2022-09-03T17:35:03;4.43;;;2.05;;
28523;SDS011;15734;50.904;6.922;2022-09-03T17:48:46;2.78;;;2.58;;
28523;SDS011;15734;50.904;6.922;2022-09-03T17:54:52;6.07;;;3.30;;
28523;SDS011;15734;50.904;6.922;2022-09-03T17:57:17;4.28;;;3.15;;
28523;SDS011;15734;50.904;6.922;2022-09-03T17:59:58;5.93;;;3.30;;
28523;SDS011;15734;50.904;6.922;2022-09-03T18:08:01;4.53;;;2.40;;
28523;SDS011;15734;50.904;6.922;2022-09-03T18:10:38;4.85;;;2.28;;
28523;SDS011;15734;50.904;6.922;2022-09-03T18:16:20;4.80;;;2.13;;
28523;SDS011;15734;50.904;6.922;2022-09-03T18:18:50;5.15;;;1.98;;
28523;SDS011;15734;50.904;6.922;2022-09-03T18:21:21;3.28;;;2.50;;
28523;SDS011;15734;50.904;6.922;2022-09-03T18:27:38;2.47;;;2.03;;
28523;SDS011;15734;50.904;6.922;2022-09-03T18:30:25;3.05;;;2.00;;
28523;SDS011;15734;50.904;6.922;2022-09-03T18:33:09;2.55;;;2.05;;
28523;SDS011;15734;50.904;6.922;2022-09-03T18:35:54;3.17;;;2.00;;
28523;SDS011;15734;50.904;6.922;2022-09-03T18:38:40;4.78;;;2.40;;
28523;SDS011;15734;50.904;6.922;2022-09-03T18:44:55;4.50;;;2.50;;
28523;SDS011;15734;50.904;6.922;2022-09-03T18:50:56;4.47;;;3.30;;
28523;SDS011;15734;50.904;6.922;2022-09-03T18:53:51;4.15;;;3.10;;
28523;SDS011;15734;50.904;6.922;2022-09-03T18:56:49;5.45;;;3.47;;
28523;SDS011;15734;50.904;6.922;2022-09-03T19:02:28;4.55;;;3.60;;
28523;SDS011;15734;50.904;6.922;2022-09-03T19:14:39;9.23;;;4.45;;
28523;SDS011;15734;50.904;6.922;2022-09-03T19:24:03;4.97;;;3.72;;
28523;SDS011;15734;50.904;6.922;2022-09-03T19:27:06;7.93;;;3.97;;
28523;SDS011;15734;50.904;6.922;2022-09-03T19:30:06;9.25;;;4.25;;
28523;SDS011;15734;50.904;6.922;2022-09-03T19:42:46;9.00;;;4.20;;
28523;SDS011;15734;50.904;6.922;2022-09-03T19:45:42;6.20;;;3.75;;
28523;SDS011;15734;50.904;6.922;2022-09-03T19:48:42;5.93;;;3.55;;
28523;SDS011;15734;50.904;6.922;2022-09-03T19:54:31;4.60;;;3.38;;
28523;SDS011;15734;50.904;6.922;2022-09-03T19:57:16;6.95;;;3.70;;
28523;SDS011;15734;50.904;6.922;2022-09-03T20:00:04;5.45;;;3.53;;
28523;SDS011;15734;50.904;6.922;2022-09-03T20:02:49;4.90;;;3.72;;
28523;SDS011;15734;50.904;6.922;2022-09-03T20:05:34;6.13;;;3.60;;
28523;SDS011;15734;50.904;6.922;2022-09-03T20:08:20;6.88;;;3.83;;
28523;SDS011;15734;50.904;6.922;2022-09-03T20:11:09;4.13;;;3.00;;